createdAt,value
2022-08-16T00:02:45.957Z,3.17
2022-08-16T00:24:04.668Z,3.17
2022-08-16T00:35:00.616Z,3.16
2022-08-16T00:46:00.802Z,3.15
2022-08-16T00:57:00.247Z,3.15
2022-08-16T01:07:55.647Z,3.14
2022-08-16T01:18:56.116Z,3.14
2022-08-16T01:29:58.590Z,3.14
2022-08-16T01:40:57.514Z,3.14
2022-08-16T01:51:58.933Z,3.13
2022-08-16T02:02:58.582Z,3.13
2022-08-16T02:24:31.528Z,3.13
2022-08-16T02:45:49.434Z,3.13
2022-08-16T02:56:53.190Z,3.13
2022-08-16T03:07:54.549Z,3.13
2022-08-16T03:18:55.687Z,3.12
2022-08-16T03:29:58.700Z,3.12
2022-08-16T03:41:00.249Z,3.12
2022-08-16T03:52:04.165Z,3.11
2022-08-16T04:03:03.999Z,3.11
2022-08-16T04:14:08.620Z,3.11
2022-08-16T04:25:07.528Z,3.11
2022-08-16T04:36:05.355Z,3.12
2022-08-16T04:57:30.105Z,3.13
2022-08-16T05:08:37.346Z,3.11
2022-08-16T05:19:39.643Z,3.14
2022-08-16T05:30:44.504Z,3.14
2022-08-16T05:41:44.723Z,3.15
2022-08-16T05:52:46.239Z,3.18
2022-08-16T06:03:44.182Z,3.20
2022-08-16T06:14:45.626Z,3.22
2022-08-16T06:25:52.966Z,3.23
2022-08-16T06:36:48.624Z,3.25
2022-08-16T06:47:53.466Z,3.26
2022-08-16T06:58:51.556Z,3.29
2022-08-16T07:09:53.119Z,3.36
2022-08-16T07:20:53.932Z,3.32
2022-08-16T07:31:54.033Z,3.33
2022-08-16T07:42:48.591Z,3.33
2022-08-16T07:53:47.330Z,3.33
2022-08-16T08:04:23.679Z,3.34
2022-08-16T08:15:25.528Z,3.34
2022-08-16T08:26:18.329Z,3.34
2022-08-16T08:37:14.639Z,3.34
2022-08-16T08:48:33.745Z,3.34
2022-08-16T08:59:20.140Z,3.34
2022-08-16T09:10:20.931Z,3.34
2022-08-16T09:21:20.574Z,3.34
2022-08-16T09:32:28.711Z,3.34
2022-08-16T09:43:57.897Z,3.34
2022-08-16T09:54:32.510Z,3.34
2022-08-16T10:05:30.907Z,3.34
2022-08-16T10:16:34.248Z,3.34
2022-08-16T10:27:46.280Z,3.33
2022-08-16T10:38:36.704Z,3.33
2022-08-16T10:49:31.163Z,3.34
2022-08-16T11:00:06.776Z,3.34
2022-08-16T11:11:14.174Z,3.34
2022-08-16T11:22:22.744Z,3.34
2022-08-16T11:33:12.058Z,3.34
2022-08-16T11:44:07.700Z,3.34
2022-08-16T11:55:13.480Z,3.34
2022-08-16T12:06:06.719Z,3.34
2022-08-16T12:17:01.901Z,3.34
2022-08-16T12:28:02.887Z,3.34
2022-08-16T12:38:54.846Z,3.34
2022-08-16T12:49:53.054Z,3.34
2022-08-16T13:00:54.381Z,3.35
2022-08-16T13:11:57.874Z,3.36
2022-08-16T13:22:51.331Z,3.34
2022-08-16T13:33:49.894Z,3.34
2022-08-16T13:44:56.037Z,3.34
2022-08-16T13:55:44.940Z,3.34
2022-08-16T14:06:47.049Z,3.34
2022-08-16T14:18:17.413Z,3.34
2022-08-16T14:28:50.986Z,3.34
2022-08-16T14:39:55.124Z,3.36
2022-08-16T14:51:01.732Z,3.34
2022-08-16T15:02:01.047Z,3.34
2022-08-16T15:12:50.889Z,3.35
2022-08-16T15:23:50.539Z,3.35
2022-08-16T15:34:51.301Z,3.38
2022-08-16T15:45:55.595Z,3.36
2022-08-16T15:56:53.188Z,3.36
2022-08-16T16:07:56.676Z,3.36
2022-08-16T16:18:54.437Z,3.39
2022-08-16T16:29:58.093Z,3.39
2022-08-16T16:40:54.654Z,3.39
2022-08-16T16:51:55.174Z,3.38
2022-08-16T17:02:59.637Z,3.37
2022-08-16T17:13:59.498Z,3.37
2022-08-16T17:25:01.438Z,3.36
2022-08-16T17:35:58.089Z,3.34
2022-08-16T17:46:57.966Z,3.34
2022-08-16T17:57:56.668Z,3.33
2022-08-16T18:08:48.582Z,3.32
2022-08-16T18:19:57.798Z,3.29
2022-08-16T18:31:00.771Z,3.30
2022-08-16T18:41:56.510Z,3.29
2022-08-16T18:52:50.435Z,3.29
2022-08-16T19:03:27.264Z,3.27
2022-08-16T19:14:25.552Z,3.27
2022-08-16T19:25:28.425Z,3.27
2022-08-16T19:36:32.325Z,3.26
2022-08-16T19:47:24.221Z,3.26
2022-08-16T19:58:23.042Z,3.25
2022-08-16T20:09:22.852Z,3.25
2022-08-16T20:20:22.305Z,3.25
2022-08-16T20:31:20.648Z,3.25
2022-08-16T20:42:21.780Z,3.25
2022-08-16T20:53:23.965Z,3.24
2022-08-16T21:04:21.046Z,3.24
2022-08-16T21:15:22.071Z,3.23
2022-08-16T21:26:19.070Z,3.23
2022-08-16T21:37:20.145Z,3.22
2022-08-16T21:48:19.011Z,3.22
2022-08-16T21:59:25.203Z,3.22
2022-08-16T22:11:06.422Z,3.21
2022-08-16T22:21:30.746Z,3.21
2022-08-16T22:32:31.185Z,3.21
2022-08-16T22:43:32.663Z,3.21
2022-08-16T22:54:40.939Z,3.20
2022-08-16T23:05:35.805Z,3.19
2022-08-16T23:16:36.631Z,3.19
2022-08-16T23:27:38.536Z,3.19
2022-08-16T23:38:40.870Z,3.18
2022-08-16T23:49:57.856Z,3.18
